Time;durP1;ratioP1;P1;durP2;ratioP2;P2;SDS_P1;SDS_P2;PMS_P1;PMS_P2;Temp;Humidity;BMP_temperature;BMP_pressure;BME280_temperature;BME280_humidity;BME280_pressure;Samples;Min_cycle;Max_cycle;Signal;HPM_P1;HPM_P2
2022/03/17 00:00:16;;;;;;;3.40;3.10;;;17.20;52.70;;;;;;5100455;28;20173;-17
2022/03/17 00:02:44;;;;;;;3.40;3.10;;;17.20;53.00;;;;;;5083131;28;20184;-17
2022/03/17 00:05:11;;;;;;;3.40;3.10;;;17.20;52.70;;;;;;5082461;28;20444;-17
2022/03/17 00:07:38;;;;;;;5.10;3.20;;;17.20;52.70;;;;;;5100237;28;20179;-17
2022/03/17 00:10:07;;;;;;;4.57;3.50;;;17.20;52.70;;;;;;5098932;28;20230;-15
2022/03/17 00:12:33;;;;;;;3.50;3.20;;;17.20;52.70;;;;;;5099880;28;20185;-15
2022/03/17 00:14:59;;;;;;;3.73;3.27;;;17.20;53.00;;;;;;5082923;28;20179;-19
2022/03/17 00:17:26;;;;;;;4.07;3.30;;;17.20;52.60;;;;;;5081990;28;20495;-18
2022/03/17 00:19:53;;;;;;;3.43;3.13;;;17.20;52.60;;;;;;5099481;28;20176;-17
2022/03/17 00:22:18;;;;;;;3.53;3.10;;;17.20;52.60;;;;;;5099515;28;20254;-19
2022/03/17 00:24:44;;;;;;;2.90;2.70;;;17.20;52.70;;;;;;5100069;28;20571;-16
2022/03/17 00:27:15;;;;;;;3.67;3.30;;;17.20;52.60;;;;;;5082026;28;20556;-15
2022/03/17 00:29:41;;;;;;;3.60;3.30;;;17.20;52.60;;;;;;5081662;28;20178;-21
2022/03/17 00:32:08;;;;;;;3.30;3.00;;;17.10;52.60;;;;;;5098952;28;20186;-19
2022/03/17 00:35:35;;;;;;;3.83;3.40;;;17.10;52.60;;;;;;5082129;28;20232;-15
2022/03/17 00:37:21;;;;;;;3.50;3.20;;;17.10;52.60;;;;;;5078923;28;20221;-18
2022/03/17 00:39:46;;;;;;;3.40;3.10;;;17.20;52.70;;;;;;5089357;28;20216;-17
2022/03/17 00:42:12;;;;;;;2.97;2.70;;;17.10;52.60;;;;;;5099596;28;20189;-19
2022/03/17 00:44:38;;;;;;;4.07;3.67;;;17.10;52.60;;;;;;5099477;28;20162;-16
2022/03/17 00:47:04;;;;;;;3.80;3.40;;;17.20;52.60;;;;;;5080859;28;20197;-17
2022/03/17 00:49:29;;;;;;;3.50;3.20;;;17.20;52.60;;;;;;5099366;28;20541;-15
2022/03/17 00:51:55;;;;;;;3.73;3.43;;;17.10;52.60;;;;;;5085904;28;20188;-17
2022/03/17 00:54:23;;;;;;;4.30;3.27;;;17.20;52.60;;;;;;5078188;28;20174;-17
2022/03/17 00:56:49;;;;;;;3.83;3.43;;;17.10;52.60;;;;;;5077602;28;20212;-20
2022/03/17 00:59:14;;;;;;;4.47;3.20;;;17.10;52.60;;;;;;5081753;28;20174;-17
2022/03/17 01:01:40;;;;;;;3.90;3.60;;;17.10;52.60;;;;;;5081569;28;20232;-16
2022/03/17 01:04:08;;;;;;;3.80;3.50;;;17.10;52.60;;;;;;5099144;28;20167;-21
2022/03/17 01:06:33;;;;;;;3.67;3.33;;;17.20;52.60;;;;;;5094886;28;20188;-17
2022/03/17 01:08:59;;;;;;;3.80;3.50;;;17.10;52.60;;;;;;5080600;28;20266;-14
2022/03/17 01:11:25;;;;;;;4.50;3.83;;;17.10;52.90;;;;;;5098730;28;20191;-18
2022/03/17 01:13:51;;;;;;;3.93;3.30;;;17.10;52.50;;;;;;5098544;28;20423;-18
2022/03/17 01:16:16;;;;;;;4.07;3.50;;;17.10;52.50;;;;;;5098031;28;20208;-17
2022/03/17 01:18:42;;;;;;;4.47;3.70;;;17.10;52.50;;;;;;5080695;28;20165;-18
2022/03/17 01:21:08;;;;;;;3.67;3.37;;;17.10;52.50;;;;;;5098537;28;20190;-17
2022/03/17 01:23:34;;;;;;;4.10;3.80;;;17.10;52.50;;;;;;5080544;28;20157;-18
2022/03/17 01:26:00;;;;;;;3.90;3.50;;;17.10;52.50;;;;;;5098506;28;20174;-17
2022/03/17 01:28:25;;;;;;;4.77;3.90;;;17.10;52.50;;;;;;5098023;28;20184;-17
2022/03/17 01:30:52;;;;;;;3.77;3.47;;;17.10;52.50;;;;;;5081006;28;20198;-15
2022/03/17 01:33:18;;;;;;;3.70;3.40;;;17.10;52.50;;;;;;5098813;28;20200;-17
2022/03/17 01:35:44;;;;;;;4.00;3.60;;;17.10;52.50;;;;;;5098892;28;20163;-18
2022/03/17 01:38:09;;;;;;;3.63;3.33;;;17.10;52.50;;;;;;5097030;28;20263;-16
2022/03/17 01:40:35;;;;;;;3.77;3.43;;;17.10;52.50;;;;;;5078114;28;20258;-19
2022/03/17 01:43:02;;;;;;;4.17;3.67;;;17.10;52.50;;;;;;5077831;28;20205;-17
2022/03/17 01:45:28;;;;;;;4.20;3.80;;;17.10;52.50;;;;;;5096665;28;20181;-17
2022/03/17 01:47:54;;;;;;;3.57;3.27;;;17.10;52.50;;;;;;5079819;28;20446;-17
2022/03/17 01:50:20;;;;;;;3.97;3.57;;;17.10;52.50;;;;;;5098508;28;20186;-19
2022/03/17 01:52:47;;;;;;;3.70;3.40;;;17.00;52.40;;;;;;5092967;28;20701;-17
2022/03/17 01:55:17;;;;;;;3.73;3.43;;;17.00;52.50;;;;;;5095764;28;20189;-17
2022/03/17 01:57:43;;;;;;;4.23;3.83;;;17.00;52.40;;;;;;5079886;28;20456;-16
2022/03/17 02:00:13;;;;;;;3.93;3.53;;;17.10;52.50;;;;;;5091831;28;20183;-17
2022/03/17 02:02:41;;;;;;;3.90;3.50;;;17.10;52.50;;;;;;5086550;28;20204;-19
2022/03/17 02:05:06;;;;;;;4.60;4.00;;;17.10;52.50;;;;;;5095115;28;20176;-14
2022/03/17 02:07:32;;;;;;;4.30;3.90;;;17.00;52.40;;;;;;5096643;28;20268;-19
2022/03/17 02:09:59;;;;;;;4.20;3.80;;;17.00;52.40;;;;;;5073444;28;20197;-15
2022/03/17 02:15:10;;;;;;;4.37;3.97;;;17.00;52.40;;;;;;5088851;28;20664;-14
2022/03/17 02:17:39;;;;;;;4.47;3.67;;;17.00;52.50;;;;;;5088502;28;20205;-15
2022/03/17 02:20:08;;;;;;;3.77;3.47;;;17.00;52.40;;;;;;5076894;28;20489;-17
2022/03/17 02:22:44;;;;;;;4.20;3.80;;;17.00;52.40;;;;;;5073963;28;20479;-15
2022/03/17 02:27:59;;;;;;;4.33;3.80;;;17.00;52.50;;;;;;5096717;28;20484;-14
2022/03/17 02:30:25;;;;;;;4.30;3.90;;;17.00;52.40;;;;;;5079734;28;20170;-16
2022/03/17 02:32:58;;;;;;;4.53;4.03;;;17.00;52.40;;;;;;5097908;28;20172;-16
2022/03/17 02:35:24;;;;;;;4.13;3.70;;;17.00;52.30;;;;;;5080169;28;20169;-14
2022/03/17 02:37:52;;;;;;;4.33;3.93;;;17.00;52.40;;;;;;5097759;28;20250;-18
2022/03/17 02:40:18;;;;;;;3.93;3.63;;;17.00;52.30;;;;;;5097807;28;20611;-18
2022/03/17 02:42:45;;;;;;;4.47;4.07;;;17.00;52.40;;;;;;5097423;28;20170;-17
2022/03/17 02:45:11;;;;;;;4.27;3.80;;;17.00;52.30;;;;;;5097294;28;20172;-18
2022/03/17 02:47:39;;;;;;;4.33;3.93;;;16.90;52.30;;;;;;5080143;28;20331;-18
2022/03/17 02:50:06;;;;;;;3.90;3.60;;;16.90;52.30;;;;;;5097849;28;20251;-18
2022/03/17 02:52:32;;;;;;;4.10;3.70;;;17.00;52.40;;;;;;5097432;28;20202;-16
2022/03/17 02:54:59;;;;;;;4.27;3.87;;;16.90;52.30;;;;;;5079951;28;20590;-17
2022/03/17 02:57:25;;;;;;;3.63;3.33;;;16.90;52.30;;;;;;5097711;28;20210;-19
2022/03/17 02:59:54;;;;;;;4.33;3.90;;;16.90;52.30;;;;;;5080195;28;20455;-15
2022/03/17 03:02:21;;;;;;;3.90;3.50;;;17.00;52.40;;;;;;5080016;28;20178;-17
2022/03/17 03:04:47;;;;;;;4.40;4.00;;;17.00;52.40;;;;;;5097709;28;20552;-18
2022/03/17 03:07:13;;;;;;;3.80;3.50;;;16.90;52.30;;;;;;5097278;28;20558;-17
2022/03/17 03:09:39;;;;;;;4.10;3.70;;;16.90;52.40;;;;;;5079834;28;20599;-14
2022/03/17 03:12:05;;;;;;;4.10;3.70;;;16.90;52.30;;;;;;5097610;28;20490;-17
2022/03/17 03:14:31;;;;;;;4.37;3.97;;;16.90;52.40;;;;;;5097004;28;20279;-14
2022/03/17 03:16:58;;;;;;;3.60;3.30;;;16.90;52.30;;;;;;5096567;28;20283;-17
2022/03/17 03:19:24;;;;;;;5.03;3.73;;;17.00;52.40;;;;;;5076783;28;20239;-17
2022/03/17 03:21:50;;;;;;;4.00;3.60;;;16.90;52.30;;;;;;5080030;28;20158;-15
2022/03/17 03:24:16;;;;;;;4.63;4.23;;;16.90;52.30;;;;;;5098020;28;20198;-16
2022/03/17 03:26:52;;;;;;;4.10;3.70;;;17.00;52.40;;;;;;5097338;28;20173;-16
2022/03/17 03:29:25;;;;;;;4.83;4.10;;;16.90;52.40;;;;;;5097236;28;20177;-16
2022/03/17 03:31:53;;;;;;;3.97;3.57;;;16.90;52.30;;;;;;5061136;28;20279;-16
2022/03/17 03:34:20;;;;;;;4.30;3.90;;;16.90;52.30;;;;;;5063419;28;20201;-19
2022/03/17 03:39:38;;;;;;;4.07;3.67;;;16.90;52.30;;;;;;5101097;28;20168;-19
2022/03/17 03:42:05;;;;;;;4.10;3.70;;;16.90;52.30;;;;;;5083119;28;20251;-18
2022/03/17 03:44:31;;;;;;;4.33;3.80;;;16.90;52.30;;;;;;5101132;28;20542;-16
2022/03/17 03:46:57;;;;;;;5.30;3.67;;;16.90;52.30;;;;;;5100700;28;20229;-14
2022/03/17 03:49:23;;;;;;;4.67;3.77;;;16.90;52.30;;;;;;5083330;28;20648;-19
2022/03/17 03:51:49;;;;;;;4.13;3.77;;;16.90;52.30;;;;;;5082613;28;20249;-20
2022/03/17 03:54:17;;;;;;;4.20;3.80;;;16.90;52.30;;;;;;5082766;28;20177;-15
2022/03/17 03:56:54;;;;;;;7.63;4.03;;;16.90;52.40;;;;;;5084778;28;20293;-17
2022/03/17 03:59:22;;;;;;;4.13;3.73;;;16.90;52.30;;;;;;5055077;28;20177;-20
2022/03/17 04:01:50;;;;;;;4.33;3.93;;;16.90;52.30;;;;;;5082034;28;20177;-19
2022/03/17 04:04:20;;;;;;;4.40;3.80;;;16.90;52.30;;;;;;5100335;28;20280;-16
2022/03/17 04:06:58;;;;;;;4.73;3.80;;;16.90;52.40;;;;;;5082900;28;20221;-17
2022/03/17 04:09:30;;;;;;;3.87;3.33;;;16.90;52.30;;;;;;5082690;28;20188;-14
2022/03/17 04:11:56;;;;;;;4.10;3.70;;;16.90;52.40;;;;;;5094515;28;20188;-16
2022/03/17 04:14:23;;;;;;;4.20;3.80;;;16.90;52.40;;;;;;5070153;28;20174;-20
2022/03/17 04:16:49;;;;;;;3.80;3.50;;;16.90;52.40;;;;;;5097082;28;20261;-14
2022/03/17 04:19:16;;;;;;;4.27;3.87;;;16.90;52.40;;;;;;5099358;28;20232;-18
2022/03/17 04:21:43;;;;;;;4.00;3.60;;;16.90;52.30;;;;;;5099699;28;20225;-16
2022/03/17 04:24:09;;;;;;;3.83;3.47;;;16.80;52.30;;;;;;5082614;28;20168;-17
2022/03/17 04:26:35;;;;;;;4.23;3.83;;;16.90;52.40;;;;;;5082086;28;20232;-14
2022/03/17 04:29:01;;;;;;;4.00;3.60;;;16.90;52.40;;;;;;5082388;28;20173;-16
2022/03/17 04:31:28;;;;;;;4.00;3.60;;;16.90;52.30;;;;;;5096527;28;20183;-14
2022/03/17 04:33:55;;;;;;;4.30;3.90;;;16.90;52.40;;;;;;5082085;28;20172;-19
2022/03/17 04:36:21;;;;;;;4.10;3.70;;;16.90;52.40;;;;;;5100330;28;20199;-17
2022/03/17 04:38:49;;;;;;;4.23;3.83;;;16.80;52.30;;;;;;5090996;28;20173;-18
2022/03/17 04:41:15;;;;;;;4.43;3.90;;;16.80;52.30;;;;;;5081579;28;20181;-15
2022/03/17 04:43:41;;;;;;;4.57;3.90;;;16.80;52.30;;;;;;5063533;28;20188;-16
2022/03/17 04:46:07;;;;;;;4.70;4.30;;;16.80;52.30;;;;;;5073704;28;20170;-15
2022/03/17 04:48:34;;;;;;;4.50;4.10;;;16.80;52.30;;;;;;5099283;28;20223;-18
2022/03/17 04:51:00;;;;;;;4.30;3.90;;;16.80;52.30;;;;;;5081421;28;20170;-16
2022/03/17 04:53:30;;;;;;;4.17;3.77;;;16.80;52.40;;;;;;5098848;28;20158;-17
2022/03/17 04:56:03;;;;;;;4.07;3.70;;;16.80;52.80;;;;;;5099089;28;20181;-18
2022/03/17 04:58:31;;;;;;;4.17;3.87;;;16.80;52.40;;;;;;5081452;28;20272;-19
2022/03/17 05:00:58;;;;;;;4.07;3.67;;;16.80;52.40;;;;;;5098440;28;20578;-19
2022/03/17 05:03:24;;;;;;;5.10;4.13;;;16.80;52.40;;;;;;5072944;28;20177;-15
2022/03/17 05:05:51;;;;;;;4.10;3.57;;;16.80;52.40;;;;;;5071507;28;20467;-16
2022/03/17 05:08:17;;;;;;;4.00;3.70;;;16.80;52.40;;;;;;5077258;28;20477;-15
2022/03/17 05:10:44;;;;;;;3.87;3.50;;;16.80;52.50;;;;;;5093028;28;20188;-14
2022/03/17 05:13:11;;;;;;;4.70;3.90;;;16.80;52.50;;;;;;5071410;28;20462;-17
2022/03/17 05:15:37;;;;;;;4.20;3.80;;;16.80;52.50;;;;;;5093134;28;20450;-18
2022/03/17 05:18:05;;;;;;;4.37;3.97;;;16.80;52.50;;;;;;5097913;28;20202;-15
2022/03/17 05:20:31;;;;;;;4.30;3.90;;;16.80;52.50;;;;;;5071954;28;20185;-18
2022/03/17 05:22:58;;;;;;;3.97;3.63;;;16.80;52.50;;;;;;5080542;28;20177;-17
2022/03/17 05:25:24;;;;;;;4.50;3.80;;;16.80;52.50;;;;;;5078385;28;20209;-15
2022/03/17 05:27:50;;;;;;;4.20;3.90;;;16.80;52.50;;;;;;5090943;28;20206;-19
2022/03/17 05:30:18;;;;;;;5.20;3.87;;;16.80;52.50;;;;;;5093658;28;20175;-20
2022/03/17 05:32:46;;;;;;;4.13;3.73;;;16.70;52.50;;;;;;5097915;28;20161;-17
2022/03/17 05:35:15;;;;;;;4.03;3.67;;;16.70;52.50;;;;;;5075670;28;20181;-20
2022/03/17 05:37:41;;;;;;;5.93;3.87;;;16.70;52.60;;;;;;5073889;28;20204;-14
2022/03/17 05:40:13;;;;;;;4.10;3.70;;;16.70;53.70;;;;;;5072128;28;20182;-20
2022/03/17 05:42:42;;;;;;;5.00;4.10;;;16.80;53.50;;;;;;5071365;28;20182;-18
2022/03/17 05:45:09;;;;;;;4.00;3.60;;;16.70;53.20;;;;;;5094790;28;20200;-18
2022/03/17 05:47:45;;;;;;;3.90;3.50;;;16.80;53.10;;;;;;5068628;28;20215;-19
2022/03/17 05:50:13;;;;;;;4.40;4.00;;;16.70;53.00;;;;;;5094686;28;20184;-17
2022/03/17 05:52:43;;;;;;;4.53;3.27;;;16.70;53.10;;;;;;5078855;28;20171;-16
2022/03/17 05:55:14;;;;;;;4.30;3.90;;;16.70;53.10;;;;;;5078806;28;20175;-19
2022/03/17 05:57:42;;;;;;;4.40;3.80;;;16.70;53.00;;;;;;5073287;28;20193;-20
2022/03/17 06:00:13;;;;;;;3.77;3.47;;;16.70;53.00;;;;;;5084266;28;20184;-15
2022/03/17 06:02:39;;;;;;;3.53;3.17;;;16.70;53.10;;;;;;5087749;28;20177;-14
2022/03/17 06:05:06;;;;;;;3.77;3.40;;;16.70;53.00;;;;;;5092633;28;20194;-17
2022/03/17 06:07:39;;;;;;;4.00;3.60;;;16.70;53.00;;;;;;5073302;28;20187;-17
2022/03/17 06:10:13;;;;;;;3.63;3.33;;;16.70;53.10;;;;;;5083688;28;20588;-16
2022/03/17 06:12:39;;;;;;;4.20;3.80;;;16.70;53.10;;;;;;5085053;28;20181;-16
2022/03/17 06:15:06;;;;;;;3.53;3.23;;;16.70;53.10;;;;;;5091287;28;20180;-17
2022/03/17 06:17:39;;;;;;;4.13;3.10;;;16.70;53.10;;;;;;5093325;28;20214;-19
2022/03/17 06:20:09;;;;;;;4.40;3.53;;;16.70;53.60;;;;;;5075608;28;20680;-16
2022/03/17 06:22:40;;;;;;;4.50;3.43;;;16.70;53.50;;;;;;5092123;28;20192;-15
2022/03/17 06:25:08;;;;;;;3.63;3.33;;;16.70;53.60;;;;;;5064494;28;20676;-19
2022/03/17 06:27:36;;;;;;;4.07;3.63;;;16.70;53.80;;;;;;5094959;28;20182;-15
2022/03/17 06:30:04;;;;;;;3.70;3.40;;;16.70;53.90;;;;;;5077301;28;20250;-15
2022/03/17 06:32:30;;;;;;;3.70;3.40;;;16.70;54.10;;;;;;5077261;28;20375;-16
2022/03/17 06:34:56;;;;;;;3.80;3.50;;;16.70;54.20;;;;;;5092425;28;20528;-17
2022/03/17 06:37:23;;;;;;;3.93;3.43;;;16.70;54.40;;;;;;5095548;28;20293;-15
2022/03/17 06:39:49;;;;;;;4.07;3.67;;;16.80;54.70;;;;;;5095737;28;20713;-19
2022/03/17 06:42:14;;;;;;;5.80;4.20;;;16.80;54.90;;;;;;5089732;28;20177;-18
2022/03/17 06:44:40;;;;;;;4.47;4.07;;;16.80;55.10;;;;;;5077586;28;20171;-18
2022/03/17 06:47:05;;;;;;;6.43;3.63;;;16.80;55.30;;;;;;5095044;28;20176;-14
2022/03/17 06:49:31;;;;;;;4.90;4.23;;;16.80;55.50;;;;;;5096007;28;20176;-20
2022/03/17 06:51:58;;;;;;;4.50;3.57;;;16.80;55.50;;;;;;5095915;28;20180;-15
2022/03/17 06:54:25;;;;;;;4.53;3.97;;;16.80;55.50;;;;;;5095484;28;20192;-19
2022/03/17 06:56:50;;;;;;;4.33;3.60;;;16.80;55.60;;;;;;5095856;28;20185;-18
2022/03/17 06:59:16;;;;;;;5.50;3.70;;;16.80;55.70;;;;;;5095463;28;20656;-16
2022/03/17 07:01:42;;;;;;;6.07;3.80;;;16.80;55.80;;;;;;5077449;28;20624;-16
2022/03/17 07:04:10;;;;;;;4.80;3.73;;;16.80;55.90;;;;;;5095678;28;20429;-14
2022/03/17 07:06:35;;;;;;;4.67;4.00;;;16.80;55.90;;;;;;5079409;28;20224;-18
2022/03/17 07:09:01;;;;;;;7.37;4.07;;;16.80;56.00;;;;;;5099434;28;20191;-16
2022/03/17 07:11:32;;;;;;;5.97;4.23;;;16.80;56.10;;;;;;5098534;28;20235;-15
2022/03/17 07:13:58;;;;;;;4.97;4.47;;;16.80;56.50;;;;;;5099325;28;20221;-17
2022/03/17 07:16:23;;;;;;;6.23;3.90;;;16.80;56.60;;;;;;5081746;28;20212;-17
2022/03/17 07:18:49;;;;;;;4.50;4.10;;;16.90;56.50;;;;;;5098333;28;20168;-17
2022/03/17 07:21:23;;;;;;;4.90;3.97;;;16.90;56.60;;;;;;5081419;28;20267;-16
2022/03/17 07:23:49;;;;;;;4.00;3.70;;;16.90;56.60;;;;;;5082460;28;20207;-16
2022/03/17 07:26:14;;;;;;;4.93;3.97;;;16.90;56.80;;;;;;5099445;28;20201;-16
2022/03/17 07:28:40;;;;;;;4.67;4.00;;;16.90;56.80;;;;;;5080358;28;20181;-17
2022/03/17 07:31:06;;;;;;;4.07;3.67;;;16.90;56.60;;;;;;5098450;28;20215;-17
2022/03/17 07:33:34;;;;;;;5.00;3.77;;;16.90;56.60;;;;;;5080475;28;20184;-15
2022/03/17 07:36:00;;;;;;;4.57;4.03;;;16.90;56.50;;;;;;5098909;28;20456;-18
2022/03/17 07:38:26;;;;;;;3.77;3.40;;;16.90;56.50;;;;;;5098456;28;20168;-16
2022/03/17 07:40:51;;;;;;;4.13;3.73;;;16.80;56.50;;;;;;5098556;28;20189;-17
2022/03/17 07:43:17;;;;;;;4.87;3.83;;;16.90;56.60;;;;;;5096148;28;20172;-17
2022/03/17 07:45:43;;;;;;;3.80;3.50;;;16.80;56.50;;;;;;5073635;28;20569;-20
2022/03/17 07:48:08;;;;;;;4.67;4.17;;;16.80;56.50;;;;;;5074725;28;20176;-16
2022/03/17 07:50:34;;;;;;;4.40;4.00;;;16.80;56.50;;;;;;5074594;28;20183;-15
2022/03/17 07:53:00;;;;;;;4.50;3.47;;;16.80;56.70;;;;;;5072882;28;20793;-16
2022/03/17 07:55:27;;;;;;;4.07;3.70;;;16.90;56.80;;;;;;5090406;28;20179;-15
2022/03/17 07:57:53;;;;;;;4.63;3.80;;;16.90;56.80;;;;;;5091532;28;20202;-16
2022/03/17 08:00:19;;;;;;;4.43;4.00;;;16.90;56.70;;;;;;5074212;28;20274;-17
2022/03/17 08:02:44;;;;;;;5.23;3.50;;;16.90;56.80;;;;;;5090851;28;20519;-15
2022/03/17 08:05:13;;;;;;;4.07;3.50;;;16.90;56.90;;;;;;5091128;28;20223;-16
2022/03/17 08:07:38;;;;;;;4.40;3.43;;;16.90;57.00;;;;;;5091071;28;20173;-18
2022/03/17 08:10:05;;;;;;;3.87;3.57;;;16.90;56.90;;;;;;5090022;28;20233;-14
2022/03/17 08:12:31;;;;;;;5.43;3.60;;;16.90;56.70;;;;;;5072408;28;20179;-18
2022/03/17 08:15:07;;;;;;;3.87;3.47;;;16.90;56.80;;;;;;5067293;28;20543;-18
2022/03/17 08:17:33;;;;;;;3.70;3.10;;;16.90;56.80;;;;;;5070111;28;20200;-19
2022/03/17 08:19:59;;;;;;;3.93;3.53;;;16.80;56.80;;;;;;5070993;28;20185;-14
2022/03/17 08:22:25;;;;;;;4.40;3.63;;;16.90;56.80;;;;;;5075332;28;20176;-16
2022/03/17 08:24:51;;;;;;;4.30;3.07;;;16.90;56.80;;;;;;5070130;28;20168;-16
2022/03/17 08:27:17;;;;;;;3.73;3.37;;;16.90;56.70;;;;;;5070702;28;20253;-18
2022/03/17 08:29:43;;;;;;;3.80;3.47;;;16.90;56.70;;;;;;5071125;28;20156;-14
2022/03/17 08:32:10;;;;;;;4.70;3.40;;;16.90;56.60;;;;;;5070714;28;20185;-16
2022/03/17 08:34:36;;;;;;;3.60;3.20;;;16.90;56.70;;;;;;5069495;28;20174;-16
2022/03/17 08:37:02;;;;;;;3.23;2.93;;;16.90;56.70;;;;;;5089995;28;20301;-20
2022/03/17 08:39:28;;;;;;;4.03;3.63;;;16.90;56.50;;;;;;5088789;28;20167;-14
2022/03/17 08:41:56;;;;;;;3.80;3.20;;;16.90;56.50;;;;;;5068043;28;20173;-17
2022/03/17 08:44:22;;;;;;;3.60;3.27;;;17.00;56.50;;;;;;5072554;28;20487;-16
2022/03/17 08:49:33;;;;;;;3.37;3.07;;;16.90;56.40;;;;;;5086286;28;20180;-19
2022/03/17 08:52:00;;;;;;;4.50;3.30;;;17.00;56.50;;;;;;5083800;28;20233;-15
2022/03/17 08:54:28;;;;;;;4.37;3.20;;;16.90;56.40;;;;;;5085325;28;20173;-20
2022/03/17 08:57:00;;;;;;;3.30;2.97;;;16.90;56.40;;;;;;5087761;28;20196;-19
2022/03/17 08:59:30;;;;;;;3.73;2.90;;;16.90;56.30;;;;;;5086402;28;20229;-14
2022/03/17 09:02:01;;;;;;;3.87;2.90;;;16.90;56.30;;;;;;5081000;28;20192;-17
2022/03/17 09:04:28;;;;;;;4.43;3.00;;;16.90;56.30;;;;;;5069418;28;20170;-16
2022/03/17 09:06:59;;;;;;;2.87;2.63;;;17.00;56.40;;;;;;5063591;28;20162;-16
2022/03/17 09:09:26;;;;;;;2.57;2.37;;;16.90;56.40;;;;;;5065552;28;20174;-17
2022/03/17 09:11:52;;;;;;;3.90;2.90;;;16.90;56.40;;;;;;5061507;28;20182;-15
2022/03/17 09:14:18;;;;;;;3.10;2.80;;;16.90;56.40;;;;;;5082136;28;20192;-19
2022/03/17 09:16:44;;;;;;;3.03;2.70;;;16.90;56.40;;;;;;5085161;28;20205;-16
2022/03/17 09:19:09;;;;;;;3.87;2.97;;;16.90;56.30;;;;;;5089778;28;20183;-17
2022/03/17 09:21:36;;;;;;;2.97;2.63;;;16.90;56.40;;;;;;5089045;28;20198;-16
2022/03/17 09:24:03;;;;;;;3.60;2.70;;;17.00;56.40;;;;;;5072148;28;20494;-16
2022/03/17 09:26:30;;;;;;;3.33;2.73;;;16.90;56.30;;;;;;5070378;28;20205;-18
2022/03/17 09:28:56;;;;;;;2.93;2.63;;;17.00;56.40;;;;;;5068689;28;20176;-16
2022/03/17 09:31:22;;;;;;;3.80;2.60;;;16.90;56.30;;;;;;5071866;28;20175;-16
2022/03/17 09:33:48;;;;;;;3.17;2.60;;;16.90;56.30;;;;;;5070900;28;20577;-14
2022/03/17 09:36:16;;;;;;;3.77;2.50;;;16.90;56.40;;;;;;5071350;28;20453;-17
2022/03/17 09:38:42;;;;;;;3.10;2.80;;;17.00;56.40;;;;;;5088746;28;20204;-18
2022/03/17 09:41:25;;;;;;;2.87;2.43;;;16.90;56.30;;;;;;5087581;28;20173;-14
2022/03/17 09:43:53;;;;;;;3.43;2.40;;;17.00;56.40;;;;;;5087813;28;20258;-14
2022/03/17 09:46:21;;;;;;;3.17;2.50;;;17.00;56.30;;;;;;5088876;28;20177;-16
2022/03/17 09:48:52;;;;;;;2.90;2.60;;;17.00;56.20;;;;;;5069048;28;20584;-18
2022/03/17 09:51:21;;;;;;;2.80;2.40;;;17.00;56.30;;;;;;5070699;28;20173;-21
2022/03/17 09:53:47;;;;;;;3.00;2.70;;;17.00;56.30;;;;;;5087546;28;20173;-17
2022/03/17 09:56:13;;;;;;;2.90;2.60;;;17.00;56.30;;;;;;5088972;28;20205;-17
2022/03/17 09:58:39;;;;;;;3.77;2.70;;;17.00;56.20;;;;;;5071152;28;20460;-17
2022/03/17 10:01:07;;;;;;;2.57;2.37;;;17.00;56.30;;;;;;5087291;28;20465;-14
2022/03/17 10:03:34;;;;;;;2.77;2.20;;;17.00;56.20;;;;;;5084229;28;20520;-15
2022/03/17 10:06:05;;;;;;;3.00;2.70;;;17.00;56.20;;;;;;5086509;28;20329;-15
2022/03/17 10:08:33;;;;;;;2.63;2.17;;;17.00;56.20;;;;;;5064973;28;20182;-16
2022/03/17 10:10:59;;;;;;;2.50;2.30;;;17.00;56.20;;;;;;5060428;28;20745;-16
2022/03/17 10:13:26;;;;;;;3.57;2.20;;;17.00;56.10;;;;;;5084636;28;20181;-15
2022/03/17 10:16:08;;;;;;;2.60;2.37;;;17.00;56.10;;;;;;5081706;28;20250;-15
2022/03/17 10:18:39;;;;;;;3.83;2.63;;;17.00;56.10;;;;;;5078406;28;20173;-15
2022/03/17 10:21:12;;;;;;;2.50;2.30;;;17.00;56.10;;;;;;5086597;28;20178;-20
2022/03/17 10:23:54;;;;;;;2.20;2.00;;;17.00;56.10;;;;;;5089718;28;20246;-16
2022/03/17 10:26:44;;;;;;;2.30;2.10;;;17.00;56.10;;;;;;5080743;28;20178;-15
2022/03/17 10:29:21;;;;;;;2.37;2.17;;;17.00;56.10;;;;;;5081303;28;20446;-16
2022/03/17 10:32:07;;;;;;;2.10;1.90;;;16.90;56.10;;;;;;5072067;28;20294;-15
2022/03/17 10:34:45;;;;;;;3.60;1.90;;;17.00;56.10;;;;;;5071184;28;20177;-16
2022/03/17 10:37:13;;;;;;;2.23;2.03;;;16.90;56.10;;;;;;5089148;28;20542;-16
2022/03/17 10:39:45;;;;;;;2.20;2.00;;;17.00;56.10;;;;;;5070639;28;20173;-19
2022/03/17 10:42:15;;;;;;;2.70;2.10;;;17.00;56.10;;;;;;5089024;28;20158;-17
2022/03/17 10:44:45;;;;;;;2.37;2.10;;;17.00;56.00;;;;;;5073522;28;20183;-17
2022/03/17 10:47:10;;;;;;;2.40;2.20;;;17.00;56.10;;;;;;5056789;28;20181;-18
2022/03/17 10:49:37;;;;;;;3.03;2.10;;;17.00;56.10;;;;;;5087224;28;20188;-16
2022/03/17 10:52:04;;;;;;;2.47;1.90;;;17.00;56.10;;;;;;5087056;28;20280;-18
2022/03/17 10:54:30;;;;;;;2.43;1.87;;;17.00;56.00;;;;;;5081202;28;20417;-16
2022/03/17 10:57:00;;;;;;;2.30;2.10;;;17.00;56.00;;;;;;5063630;28;20204;-17
2022/03/17 10:59:42;;;;;;;2.07;1.70;;;17.00;55.90;;;;;;5067553;28;20558;-17
2022/03/17 11:02:08;;;;;;;2.63;1.90;;;17.00;55.90;;;;;;5077070;28;20177;-15
2022/03/17 11:04:38;;;;;;;3.03;2.07;;;17.00;55.90;;;;;;5083903;28;20185;-17
2022/03/17 11:07:11;;;;;;;2.40;1.70;;;17.00;55.80;;;;;;5082451;28;20185;-19
2022/03/17 11:09:38;;;;;;;1.90;1.80;;;17.10;55.80;;;;;;5054545;28;20187;-17
2022/03/17 11:12:07;;;;;;;2.40;2.20;;;17.00;55.70;;;;;;5082150;28;20196;-17
2022/03/17 11:14:33;;;;;;;2.27;1.90;;;17.00;55.70;;;;;;5053931;28;20573;-16
2022/03/17 11:17:03;;;;;;;1.67;1.50;;;17.00;55.70;;;;;;5062622;28;20559;-19
2022/03/17 11:19:28;;;;;;;2.80;1.83;;;17.00;55.80;;;;;;5061080;28;20181;-18
2022/03/17 11:22:10;;;;;;;2.17;1.90;;;17.00;55.80;;;;;;5061371;28;20176;-17
2022/03/17 11:24:40;;;;;;;1.97;1.70;;;17.10;55.70;;;;;;5075285;28;20618;-17
2022/03/17 11:27:13;;;;;;;2.40;1.73;;;17.00;55.70;;;;;;5055083;28;20628;-17
2022/03/17 11:29:40;;;;;;;2.00;1.80;;;17.10;55.70;;;;;;5081559;28;20473;-16
2022/03/17 11:32:09;;;;;;;2.10;1.87;;;17.10;55.70;;;;;;5087835;28;20183;-17
2022/03/17 11:34:38;;;;;;;2.00;1.83;;;17.10;55.70;;;;;;5080290;28;20323;-18
2022/03/17 11:37:19;;;;;;;2.03;1.70;;;17.10;55.60;;;;;;5069137;28;20212;-19
2022/03/17 11:39:54;;;;;;;2.37;1.87;;;17.10;55.50;;;;;;5080869;28;20182;-19
2022/03/17 11:42:40;;;;;;;1.77;1.60;;;17.10;55.50;;;;;;5062261;28;20173;-18
2022/03/17 11:45:15;;;;;;;2.07;1.80;;;17.10;55.50;;;;;;5082477;28;20201;-18
2022/03/17 11:47:54;;;;;;;2.33;2.00;;;17.20;55.50;;;;;;5067102;28;21146;-19
2022/03/17 11:50:39;;;;;;;2.70;1.70;;;17.20;55.50;;;;;;5084998;28;20209;-19
2022/03/17 11:53:14;;;;;;;1.90;1.80;;;17.10;55.40;;;;;;5082634;28;20283;-17
2022/03/17 11:55:42;;;;;;;2.10;1.73;;;17.10;55.40;;;;;;5075228;28;20259;-20
2022/03/17 11:58:39;;;;;;;1.97;1.70;;;17.10;55.40;;;;;;5063025;28;20210;-19
2022/03/17 12:01:34;;;;;;;1.87;1.60;;;17.20;55.50;;;;;;5086945;28;20271;-17
2022/03/17 12:04:04;;;;;;;2.30;1.97;;;17.20;55.50;;;;;;5062708;28;20208;-19
2022/03/17 12:06:32;;;;;;;2.03;1.80;;;17.20;55.40;;;;;;5084574;28;20347;-19
2022/03/17 12:09:01;;;;;;;1.90;1.60;;;17.20;55.40;;;;;;5082668;28;20711;-16
2022/03/17 12:11:51;;;;;;;1.80;1.60;;;17.20;55.40;;;;;;5064442;28;20189;-15
2022/03/17 12:14:23;;;;;;;1.90;1.60;;;17.20;55.40;;;;;;5061750;28;20611;-19
2022/03/17 12:16:51;;;;;;;1.90;1.70;;;17.20;55.40;;;;;;5085839;28;20321;-18
2022/03/17 12:19:30;;;;;;;1.80;1.60;;;17.20;55.40;;;;;;5065842;28;20179;-17
2022/03/17 12:22:02;;;;;;;2.17;1.40;;;17.20;55.40;;;;;;5086683;28;21111;-17
2022/03/17 12:24:47;;;;;;;1.93;1.43;;;17.20;55.30;;;;;;5088015;28;20180;-19
2022/03/17 12:27:30;;;;;;;1.93;1.50;;;17.20;55.20;;;;;;5085982;28;20189;-16
2022/03/17 12:30:02;;;;;;;1.63;1.50;;;17.30;55.20;;;;;;5069954;28;20180;-17
2022/03/17 12:32:38;;;;;;;1.97;1.60;;;17.30;55.20;;;;;;5084707;28;20228;-15
2022/03/17 12:35:05;;;;;;;2.43;1.60;;;17.30;55.10;;;;;;5068613;28;20236;-17
2022/03/17 12:37:34;;;;;;;1.50;1.40;;;17.30;55.10;;;;;;5062481;28;20305;-18
2022/03/17 12:40:02;;;;;;;1.50;1.40;;;17.30;55.00;;;;;;5085293;28;20177;-17
2022/03/17 12:42:40;;;;;;;2.10;1.53;;;17.40;55.00;;;;;;5089450;28;20409;-17
2022/03/17 12:45:11;;;;;;;1.77;1.50;;;17.40;55.30;;;;;;5089352;28;20213;-18
2022/03/17 12:47:39;;;;;;;1.80;1.50;;;17.40;54.90;;;;;;5075062;28;20181;-17
2022/03/17 12:50:14;;;;;;;1.73;1.43;;;17.40;54.90;;;;;;5066460;28;20307;-18
2022/03/17 12:52:42;;;;;;;1.70;1.50;;;17.40;54.90;;;;;;5069701;28;20572;-18
2022/03/17 12:55:10;;;;;;;1.73;1.50;;;17.40;54.90;;;;;;5063228;28;20365;-17
2022/03/17 12:57:37;;;;;;;1.80;1.60;;;17.40;54.90;;;;;;5085812;28;20326;-20
2022/03/17 13:00:05;;;;;;;1.90;1.50;;;17.40;54.80;;;;;;5088400;28;20178;-18
2022/03/17 13:02:31;;;;;;;1.37;1.27;;;17.40;54.80;;;;;;5080853;28;20273;-18
2022/03/17 13:04:58;;;;;;;2.10;1.47;;;17.40;54.70;;;;;;5067604;28;20278;-16